Onweer radar Meer informatie blitzortung!


Regen radar Meer informatie rain snow radar



METAR rapporten vliegvelden

   
EHRD - Rotterdam
Gewijzigd: 22-07-2019 19:55
Helder  
Helder  
   Wind: Westen 8 km/h
Wind: Westen 8 km/h
Temperatuur: 23°C
Dauwpunt: 16°C
Vochtigheid: 65%
Barometer: 1022 hPa
Bewolking: Clear
Zicht: meer dan 10 km
Bewolking: Helder ft
EHRD 221755Z AUTO 27008KT 240V300 9999 NCD 23/16 Q1022 NOSIG
EBAW - Antwerpen
Gewijzigd: 22-07-2019 19:50
Helder  
Helder  
   Wind: ZW 6 km/h
Wind: ZW 6 km/h
Temperatuur: 28°C
Hitte index: 28°C
Dauwpunt: 13°C
Vochtigheid: 40%
Barometer: 1022 hPa
Zicht: meer dan 10 km
Bewolking: Helder ft
EBAW 221750Z 23006KT 190V270 CAVOK 28/13 Q1022 NOSIG
EHAM - Amsterdam
Gewijzigd: 22-07-2019 19:55
Helder  
Helder  
   Wind: ZW 10 km/h
Wind: ZW 10 km/h
Temperatuur: 23°C
Dauwpunt: 14°C
Vochtigheid: 57%
Barometer: 1021 hPa
Zicht: meer dan 10 km
Bewolking: Helder ft
EHAM 221755Z 23010KT 200V270 CAVOK 23/14 Q1021 NOSIG
EHEH - Eindhoven
Gewijzigd: 22-07-2019 19:55
Bewolking  
Bewolking  
   Wind: ZZW 7 km/h
Wind: ZZW 7 km/h
Temperatuur: 28°C
Hitte index: 28°C
Dauwpunt: 13°C
Vochtigheid: 40%
Barometer: 1021 hPa
Bewolking: Overcast
Zicht: meer dan 10 km
Bewolking: Bewolking 40000 ft
EHEH 221755Z AUTO 21007KT 180V300 9999 OVC400 28/13 Q1021 BLU 24010KT CAVOK
  

Script ontwikkeld door  Saratoga-weather.org Aangepast voor de template door  Weerstation Leuven

U vindt ons ook hier:

Het Weer Aktueel

Apparatuur in gebruik:

Weerstation
Davis VP2

Weerprogramma
Cumulus

Weercomputer
Pipo X9 with Windows 10

Davis VP2

Cumulus

Pipo X9 with Windows 10